aviador You're here:

KNMM Decoded Metar

MERIDIAN in MS, USA
Report Time2017-09-21 20:56:00
UTC Time2017-09-21 21:26:48
Flight Rules vfr VFR
WindVRB at 04 kt
Visibility9999 m
Phenomena:N/A
Clouds:Few 055 Hf
Expected CloudBase > 5,600 ft AGL from Temp-Dew spread
CeilingNone
Temp35°C (ISA +21)
Dew Point21°C (44% RH)
Heat Index38.5°C
QNH1015 hPa
Density Alt2,920 ft
Elevation318 ft
Report Wrong Elevation
Raw Report
KNMM 212056Z VRB04KT 10SM FEW055 35/21 A2998 RMK AO2 SLP157
T03500206 56025=

Extra information for KNMM:More info

Metar Taf Metar & Taf Last 4 Metars F.Rules Stats Wind Profile Meteogram Temp Stats Airport Information Weather charts Add Link Nearby VenuesMetar ALERT Operation Metar Decoded Social comments

AIRNAV info for KNMM